createdAt,value
2023-03-28T00:01:09.871Z,101109.03
2023-03-28T00:03:39.956Z,101126.22
2023-03-28T00:06:18.313Z,101117.09
2023-03-28T00:08:47.497Z,101125.16
2023-03-28T00:11:22.633Z,101122.06
2023-03-28T00:13:58.175Z,101123.81
2023-03-28T00:16:27.515Z,101102.53
2023-03-28T00:18:54.825Z,101107.56
2023-03-28T00:21:29.436Z,101114.88
2023-03-28T00:24:03.640Z,101113.78
2023-03-28T00:26:34.348Z,101108.69
2023-03-28T00:29:03.690Z,101123.47
2023-03-28T00:31:35.316Z,101122.81
2023-03-28T00:34:02.585Z,101120.09
2023-03-28T00:36:32.586Z,101144.25
2023-03-28T00:39:06.714Z,101147.00
2023-03-28T00:41:40.205Z,101153.00
2023-03-28T00:44:51.591Z,101179.34
2023-03-28T00:47:27.801Z,101170.66
2023-03-28T00:50:03.535Z,101171.53
2023-03-28T00:52:53.886Z,101168.78
2023-03-28T00:55:58.861Z,101170.16
2023-03-28T00:58:31.599Z,101173.69
2023-03-28T01:00:59.011Z,101164.47
2023-03-28T01:03:33.777Z,101177.69
2023-03-28T01:06:04.516Z,101175.41
2023-03-28T01:08:40.712Z,101187.13
2023-03-28T01:11:07.770Z,101183.03
2023-03-28T01:13:42.146Z,101184.03
2023-03-28T01:16:10.801Z,101180.75
2023-03-28T01:18:41.569Z,101193.78
2023-03-28T01:21:28.947Z,101197.41
2023-03-28T01:24:23.143Z,101205.53
2023-03-28T01:27:00.274Z,101193.00
2023-03-28T01:30:07.969Z,101200.13
2023-03-28T01:33:26.945Z,101209.88
2023-03-28T01:36:33.997Z,101211.03
2023-03-28T01:39:34.359Z,101212.03
2023-03-28T01:42:36.994Z,101231.34
2023-03-28T01:45:37.172Z,101234.63
2023-03-28T01:48:27.948Z,101230.66
2023-03-28T01:51:39.124Z,101240.03
2023-03-28T01:54:26.161Z,101244.63
2023-03-28T01:57:00.520Z,101238.81
2023-03-28T01:59:43.865Z,101252.31
2023-03-28T02:03:26.368Z,101260.84
2023-03-28T02:06:01.807Z,101254.91
2023-03-28T02:08:36.650Z,101267.34
2023-03-28T02:11:26.316Z,101270.47
2023-03-28T02:14:26.576Z,101257.91
2023-03-28T02:17:09.243Z,101262.69
2023-03-28T02:19:53.410Z,101261.03
2023-03-28T02:22:52.997Z,101266.31
2023-03-28T02:25:37.255Z,101274.75
2023-03-28T02:28:24.054Z,101277.28
2023-03-28T02:31:13.880Z,101267.41
2023-03-28T02:33:44.702Z,101281.00
2023-03-28T02:36:28.341Z,101279.88
2023-03-28T02:39:32.727Z,101276.09
2023-03-28T02:42:33.242Z,101281.28
2023-03-28T02:45:19.291Z,101276.84
2023-03-28T02:48:06.138Z,101267.81
2023-03-28T02:50:58.166Z,101287.47
2023-03-28T02:53:32.663Z,101287.00
2023-03-28T02:56:14.620Z,101298.75
2023-03-28T02:59:31.386Z,101310.31
2023-03-28T03:01:58.983Z,101305.19
2023-03-28T03:04:25.926Z,101306.00
2023-03-28T03:06:52.869Z,101305.66
2023-03-28T03:09:20.883Z,101315.72
2023-03-28T03:11:47.964Z,101319.00
2023-03-28T03:14:14.916Z,101317.84
2023-03-28T03:16:43.148Z,101331.69
2023-03-28T03:19:10.530Z,101320.25
2023-03-28T03:21:38.263Z,101308.88
2023-03-28T03:24:05.760Z,101322.22
2023-03-28T03:26:33.046Z,101338.38
2023-03-28T03:29:04.351Z,101334.56
2023-03-28T03:31:32.765Z,101337.31
2023-03-28T03:34:20.758Z,101334.97
2023-03-28T03:36:54.704Z,101340.63
2023-03-28T03:39:22.555Z,101350.84
2023-03-28T03:41:49.514Z,101359.94
2023-03-28T03:44:16.534Z,101367.22
2023-03-28T03:46:44.349Z,101365.09
2023-03-28T03:49:11.403Z,101378.78
2023-03-28T03:51:39.430Z,101380.78
2023-03-28T03:54:06.992Z,101386.59
2023-03-28T03:56:37.166Z,101380.84
2023-03-28T03:59:04.580Z,101384.81
2023-03-28T04:01:33.989Z,101389.28
2023-03-28T04:04:24.734Z,101396.56
2023-03-28T04:07:21.414Z,101394.59
2023-03-28T04:09:51.512Z,101392.78
2023-03-28T04:12:19.005Z,101388.84
2023-03-28T04:14:48.922Z,101402.38
2023-03-28T04:17:35.634Z,101401.25
2023-03-28T04:20:13.901Z,101414.47
2023-03-28T04:23:05.672Z,101415.97
2023-03-28T04:25:33.246Z,101410.03
2023-03-28T04:28:06.190Z,101427.88
2023-03-28T04:30:38.266Z,101422.94
2023-03-28T04:33:34.641Z,101430.38
2023-03-28T04:36:05.765Z,101422.13
2023-03-28T04:38:37.105Z,101451.84
2023-03-28T04:41:25.797Z,101449.53
2023-03-28T04:44:16.069Z,101468.53
2023-03-28T04:46:51.040Z,101471.66
2023-03-28T04:49:18.332Z,101477.78
2023-03-28T04:51:45.919Z,101488.00
2023-03-28T04:54:12.999Z,101478.75
2023-03-28T04:56:49.333Z,101481.91
2023-03-28T04:59:23.384Z,101488.31
2023-03-28T05:01:51.655Z,101494.25
2023-03-28T05:04:34.392Z,101488.63
2023-03-28T05:07:05.035Z,101499.19
2023-03-28T05:09:33.777Z,101504.13
2023-03-28T05:12:01.190Z,101502.78
2023-03-28T05:14:28.428Z,101518.13
2023-03-28T05:17:07.970Z,101516.13
2023-03-28T05:20:00.967Z,101518.78
2023-03-28T05:22:34.375Z,101522.72
2023-03-28T05:25:03.639Z,101522.22
2023-03-28T05:27:31.037Z,101533.28
2023-03-28T05:29:58.324Z,101530.13
2023-03-28T05:32:28.221Z,101535.56
2023-03-28T05:34:56.251Z,101532.41
2023-03-28T05:37:28.431Z,101545.09
2023-03-28T05:39:56.078Z,101553.88
2023-03-28T05:42:23.214Z,101561.97
2023-03-28T05:44:50.561Z,101560.84
2023-03-28T05:47:56.107Z,101569.06
2023-03-28T05:50:26.205Z,101569.06
2023-03-28T05:52:58.678Z,101570.59
2023-03-28T05:55:25.792Z,101592.22
2023-03-28T05:57:53.163Z,101594.88
2023-03-28T06:00:23.450Z,101585.63
2023-03-28T06:02:52.234Z,101591.91
2023-03-28T06:05:23.903Z,101600.84
2023-03-28T06:07:51.720Z,101594.88
2023-03-28T06:10:19.368Z,101601.50
2023-03-28T06:13:08.000Z,101606.94
2023-03-28T06:15:35.139Z,101612.06
2023-03-28T06:18:02.381Z,101622.66
2023-03-28T06:20:29.694Z,101615.38
2023-03-28T06:22:56.759Z,101626.25
2023-03-28T06:25:24.986Z,101619.97
2023-03-28T06:27:52.140Z,101622.97
2023-03-28T06:30:19.461Z,101618.34
2023-03-28T06:32:50.800Z,101626.41
2023-03-28T06:35:18.410Z,101623.28
2023-03-28T06:37:45.592Z,101625.88
2023-03-28T06:40:16.375Z,101633.00
2023-03-28T06:42:43.409Z,101634.44
2023-03-28T06:45:33.593Z,101623.19
2023-03-28T06:48:05.455Z,101630.91
2023-03-28T06:51:05.081Z,101646.75
2023-03-28T06:53:32.225Z,101631.84
2023-03-28T06:55:59.853Z,101650.16
2023-03-28T06:58:27.114Z,101646.47
2023-03-28T07:01:02.808Z,101644.69
2023-03-28T07:03:41.838Z,101650.88
2023-03-28T07:06:11.942Z,101657.44
2023-03-28T07:08:39.284Z,101656.84
2023-03-28T07:11:06.957Z,101661.09
2023-03-28T07:13:34.016Z,101669.28
2023-03-28T07:16:13.777Z,101666.09
2023-03-28T07:18:41.697Z,101667.44
2023-03-28T07:21:15.244Z,101669.97
2023-03-28T07:23:42.954Z,101679.41
2023-03-28T07:26:13.581Z,101681.53
2023-03-28T07:28:41.343Z,101685.03
2023-03-28T07:31:08.850Z,101686.81
2023-03-28T07:33:38.221Z,101687.06
2023-03-28T07:36:15.102Z,101691.69
2023-03-28T07:38:47.260Z,101686.88
2023-03-28T07:41:16.383Z,101698.31
2023-03-28T07:43:43.389Z,101706.75
2023-03-28T07:46:16.605Z,101696.97
2023-03-28T07:48:46.598Z,101710.69
2023-03-28T07:51:14.290Z,101701.25
2023-03-28T07:53:41.904Z,101698.09
2023-03-28T07:56:12.363Z,101708.06
2023-03-28T07:58:59.124Z,101700.97
2023-03-28T08:01:27.556Z,101713.38
2023-03-28T08:04:02.394Z,101703.59
2023-03-28T08:06:40.983Z,101701.53
2023-03-28T08:09:11.795Z,101711.38
2023-03-28T08:11:43.772Z,101717.84
2023-03-28T08:14:14.131Z,101705.41
2023-03-28T08:16:43.815Z,101717.66
2023-03-28T08:19:12.148Z,101707.53
2023-03-28T08:22:02.359Z,101717.41
2023-03-28T08:24:36.069Z,101698.19
2023-03-28T08:27:19.915Z,101714.91
2023-03-28T08:29:51.556Z,101726.41
2023-03-28T08:32:19.245Z,101717.41
2023-03-28T08:34:46.971Z,101714.22
2023-03-28T08:37:17.527Z,101723.41
2023-03-28T08:39:47.937Z,101723.59
2023-03-28T08:42:47.724Z,101707.81
2023-03-28T08:45:32.462Z,101713.75
2023-03-28T08:48:42.160Z,101727.38
2023-03-28T08:51:22.966Z,101724.50
2023-03-28T08:54:14.732Z,101734.03
2023-03-28T08:56:51.415Z,101731.91
2023-03-28T08:59:52.257Z,101761.41
2023-03-28T09:02:27.033Z,101737.78
2023-03-28T09:05:05.146Z,101744.75
2023-03-28T09:08:15.732Z,101733.91
2023-03-28T09:11:14.996Z,101739.47
2023-03-28T09:14:10.469Z,101748.91
2023-03-28T09:17:08.407Z,101746.13
2023-03-28T09:20:06.122Z,101760.84
2023-03-28T09:23:13.939Z,101759.13
2023-03-28T09:26:34.662Z,101766.66
2023-03-28T09:29:20.919Z,101762.47
2023-03-28T09:31:52.767Z,101752.16
2023-03-28T09:34:27.416Z,101751.97
2023-03-28T09:37:17.648Z,101761.16
2023-03-28T09:39:53.399Z,101767.94
2023-03-28T09:42:40.258Z,101760.44
2023-03-28T09:46:02.825Z,101776.75
2023-03-28T09:48:49.167Z,101773.75
2023-03-28T09:51:20.591Z,101787.88
2023-03-28T09:53:48.344Z,101787.19
2023-03-28T09:56:27.937Z,101798.69
2023-03-28T09:59:05.188Z,101794.53
2023-03-28T10:01:47.978Z,101815.88
2023-03-28T10:04:30.010Z,101802.75
2023-03-28T10:07:16.650Z,101815.84
2023-03-28T10:09:58.342Z,101811.28
2023-03-28T10:12:37.792Z,101797.22
2023-03-28T10:15:08.724Z,101802.88
2023-03-28T10:18:20.264Z,101802.22
2023-03-28T10:20:56.578Z,101800.53
2023-03-28T10:23:25.315Z,101783.25
2023-03-28T10:25:55.922Z,101788.75
2023-03-28T10:28:34.451Z,101798.88
2023-03-28T10:31:03.310Z,101811.28
2023-03-28T10:33:43.094Z,101812.47
2023-03-28T10:36:34.859Z,101807.66
2023-03-28T10:39:31.147Z,101795.38
2023-03-28T10:42:16.508Z,101794.00
2023-03-28T10:45:01.196Z,101790.59
2023-03-28T10:47:31.441Z,101793.59
2023-03-28T10:50:03.911Z,101788.47
2023-03-28T10:52:55.306Z,101784.75
2023-03-28T10:55:37.524Z,101792.38
2023-03-28T10:58:33.248Z,101800.25
2023-03-28T11:04:50.497Z,101808.16
2023-03-28T11:07:42.452Z,101811.38
2023-03-28T11:10:54.414Z,101810.16
2023-03-28T11:14:04.347Z,101803.03
2023-03-28T11:16:57.102Z,101810.09
2023-03-28T11:20:17.116Z,101817.81
2023-03-28T11:23:05.603Z,101812.16
2023-03-28T11:26:01.524Z,101813.09
2023-03-28T11:29:20.557Z,101803.50
2023-03-28T11:32:15.367Z,101808.66
2023-03-28T11:35:17.393Z,101805.28
2023-03-28T11:37:59.454Z,101801.91
2023-03-28T11:40:52.713Z,101807.81
2023-03-28T11:43:31.949Z,101807.38
2023-03-28T11:46:09.225Z,101807.75
2023-03-28T11:48:52.182Z,101815.31
2023-03-28T11:51:37.411Z,101810.16
2023-03-28T11:54:48.500Z,101790.25
2023-03-28T11:57:47.585Z,101790.19
2023-03-28T12:00:42.264Z,101794.91
2023-03-28T12:03:26.380Z,101789.63
2023-03-28T12:06:05.145Z,101785.00
2023-03-28T12:09:11.221Z,101793.59
2023-03-28T12:12:01.136Z,101786.41
2023-03-28T12:14:57.796Z,101791.38
2023-03-28T12:17:53.335Z,101790.03
2023-03-28T12:20:40.148Z,101785.72
2023-03-28T12:23:38.008Z,101782.66
2023-03-28T12:26:42.606Z,101792.25
2023-03-28T12:29:26.410Z,101794.34
2023-03-28T12:32:42.918Z,101793.59
2023-03-28T12:35:35.091Z,101779.66
2023-03-28T12:38:24.005Z,101776.41
2023-03-28T12:41:04.124Z,101771.03
2023-03-28T12:43:51.785Z,101784.81
2023-03-28T12:46:49.264Z,101782.19
2023-03-28T12:49:35.715Z,101786.91
2023-03-28T12:52:12.519Z,101794.81
2023-03-28T12:55:01.420Z,101786.75
2023-03-28T12:57:47.428Z,101783.16
2023-03-28T13:01:09.899Z,101786.16
2023-03-28T13:04:04.344Z,101787.72
2023-03-28T13:07:36.122Z,101787.25
2023-03-28T13:10:27.706Z,101794.06
2023-03-28T13:13:28.286Z,101792.09
2023-03-28T13:16:13.454Z,101792.19
2023-03-28T13:19:09.372Z,101778.09
2023-03-28T13:21:57.831Z,101777.22
2023-03-28T13:24:38.836Z,101767.78
2023-03-28T13:27:17.186Z,101774.06
2023-03-28T13:29:48.994Z,101783.00
2023-03-28T13:32:21.296Z,101775.47
2023-03-28T13:34:59.843Z,101774.44
2023-03-28T13:37:47.770Z,101770.47
2023-03-28T13:40:48.116Z,101772.09
2023-03-28T13:43:44.668Z,101764.53
2023-03-28T13:46:27.660Z,101781.53
2023-03-28T13:49:09.877Z,101768.19
2023-03-28T13:51:55.019Z,101774.28
2023-03-28T13:54:23.791Z,101762.66
2023-03-28T13:56:53.005Z,101760.94
2023-03-28T13:59:27.092Z,101762.88
2023-03-28T14:01:57.529Z,101768.16
2023-03-28T14:04:27.147Z,101768.34
2023-03-28T14:06:55.602Z,101752.31
2023-03-28T14:09:34.500Z,101761.53
2023-03-28T14:12:09.448Z,101744.19
2023-03-28T14:15:07.055Z,101753.41
2023-03-28T14:17:36.651Z,101763.41
2023-03-28T14:20:07.323Z,101753.88
2023-03-28T14:22:49.293Z,101746.88
2023-03-28T14:25:27.371Z,101743.31
2023-03-28T14:27:57.103Z,101740.88
2023-03-28T14:30:38.999Z,101749.03
2023-03-28T14:33:14.351Z,101760.53
2023-03-28T14:35:42.908Z,101756.75
2023-03-28T14:38:16.750Z,101754.03
2023-03-28T14:40:45.924Z,101750.97
2023-03-28T14:43:26.984Z,101751.28
2023-03-28T14:45:56.294Z,101752.13
2023-03-28T14:48:29.210Z,101760.03
2023-03-28T14:50:59.309Z,101757.44
2023-03-28T14:53:32.342Z,101753.56
2023-03-28T14:56:11.768Z,101759.53
2023-03-28T14:58:43.789Z,101761.00
2023-03-28T15:01:24.747Z,101764.72
2023-03-28T15:03:59.524Z,101770.41
2023-03-28T15:06:32.412Z,101776.88
2023-03-28T15:09:10.048Z,101761.41
2023-03-28T15:11:41.266Z,101759.13
2023-03-28T15:14:32.088Z,101756.84
2023-03-28T15:16:59.953Z,101755.88
2023-03-28T15:19:34.403Z,101762.81
2023-03-28T15:22:11.514Z,101756.50
2023-03-28T15:24:39.233Z,101751.31
2023-03-28T15:27:16.419Z,101752.63
2023-03-28T15:29:43.441Z,101745.16
2023-03-28T15:32:18.173Z,101749.94
2023-03-28T15:34:59.282Z,101746.41
2023-03-28T15:37:27.174Z,101739.38
2023-03-28T15:40:19.720Z,101748.88
2023-03-28T15:42:49.832Z,101745.88
2023-03-28T15:45:19.798Z,101749.34
2023-03-28T15:47:54.414Z,101749.06
2023-03-28T15:50:45.375Z,101749.34
2023-03-28T15:53:16.290Z,101744.75
2023-03-28T15:55:44.747Z,101747.44
2023-03-28T15:58:23.190Z,101741.97
2023-03-28T16:01:13.144Z,101753.72
2023-03-28T16:03:40.423Z,101745.97
2023-03-28T16:06:26.720Z,101750.94
2023-03-28T16:09:20.779Z,101753.22
2023-03-28T16:12:15.877Z,101754.00
2023-03-28T16:14:49.240Z,101756.78
2023-03-28T16:17:28.789Z,101750.38
2023-03-28T16:20:27.985Z,101762.56
2023-03-28T16:22:58.423Z,101765.91
2023-03-28T16:25:27.602Z,101767.03
2023-03-28T16:27:56.579Z,101765.78
2023-03-28T16:30:42.523Z,101761.59
2023-03-28T16:33:10.288Z,101763.53
2023-03-28T16:35:37.829Z,101761.47
2023-03-28T16:38:05.309Z,101757.03
2023-03-28T16:40:32.183Z,101759.94
2023-03-28T16:42:59.977Z,101763.84
2023-03-28T16:45:27.109Z,101766.69
2023-03-28T16:47:54.018Z,101768.16
2023-03-28T16:50:21.358Z,101758.03
2023-03-28T16:52:48.505Z,101760.56
2023-03-28T16:55:17.784Z,101761.03
2023-03-28T16:57:46.372Z,101765.19
2023-03-28T17:00:17.920Z,101766.19
2023-03-28T17:02:47.560Z,101752.94
2023-03-28T17:05:15.978Z,101767.44
2023-03-28T17:07:43.055Z,101767.31
2023-03-28T17:10:11.072Z,101777.03
2023-03-28T17:12:38.163Z,101763.47
2023-03-28T17:15:06.643Z,101754.19
2023-03-28T17:17:33.890Z,101751.03
2023-03-28T17:20:01.423Z,101752.16
2023-03-28T17:22:28.840Z,101760.13
2023-03-28T17:24:57.182Z,101748.94
2023-03-28T17:27:24.512Z,101747.81
2023-03-28T17:29:51.812Z,101755.53
2023-03-28T17:32:19.168Z,101758.03
2023-03-28T17:34:46.700Z,101755.63
2023-03-28T17:37:14.086Z,101761.25
2023-03-28T17:39:41.253Z,101759.41
2023-03-28T17:42:09.631Z,101753.06
2023-03-28T17:44:36.847Z,101754.75
2023-03-28T17:47:03.976Z,101762.97
2023-03-28T17:49:31.339Z,101764.41
2023-03-28T17:51:59.887Z,101753.72
2023-03-28T17:54:27.137Z,101763.19
2023-03-28T17:56:54.445Z,101767.69
2023-03-28T17:59:22.249Z,101764.81
2023-03-28T18:01:49.813Z,101755.75
2023-03-28T18:04:17.662Z,101754.50
2023-03-28T18:07:23.086Z,101757.50
2023-03-28T18:09:50.193Z,101766.75
2023-03-28T18:12:17.533Z,101768.53
2023-03-28T18:14:45.109Z,101766.66
2023-03-28T18:17:12.213Z,101762.72
2023-03-28T18:19:39.621Z,101758.78
2023-03-28T18:22:06.771Z,101772.91
2023-03-28T18:24:34.104Z,101761.75
2023-03-28T18:27:01.729Z,101772.66
2023-03-28T18:29:29.010Z,101764.16
2023-03-28T18:31:56.555Z,101763.72
2023-03-28T18:34:23.934Z,101760.59
2023-03-28T18:36:53.244Z,101765.06
2023-03-28T18:39:23.275Z,101764.44
2023-03-28T18:41:51.176Z,101772.19
2023-03-28T18:44:18.481Z,101760.84
2023-03-28T18:46:47.113Z,101767.41
2023-03-28T18:49:15.269Z,101768.38
2023-03-28T18:51:43.206Z,101771.41
2023-03-28T18:54:11.263Z,101764.41
2023-03-28T18:56:39.141Z,101767.25
2023-03-28T18:59:06.426Z,101773.97
2023-03-28T19:01:34.484Z,101770.88
2023-03-28T19:04:01.953Z,101777.81
2023-03-28T19:06:29.183Z,101770.59
2023-03-28T19:08:56.156Z,101776.09
2023-03-28T19:11:23.533Z,101771.34
2023-03-28T19:13:50.570Z,101768.41
2023-03-28T19:16:20.647Z,101767.72
2023-03-28T19:18:48.392Z,101767.28
2023-03-28T19:21:16.855Z,101776.09
2023-03-28T19:23:44.480Z,101770.69
2023-03-28T19:26:13.184Z,101771.31
2023-03-28T19:28:41.242Z,101768.84
2023-03-28T19:31:12.303Z,101773.56
2023-03-28T19:33:43.346Z,101772.09
2023-03-28T19:36:11.595Z,101774.31
2023-03-28T19:38:40.179Z,101779.19
2023-03-28T19:41:18.062Z,101771.94
2023-03-28T19:43:46.182Z,101775.97
2023-03-28T19:46:19.910Z,101778.44
2023-03-28T19:48:47.057Z,101778.63
2023-03-28T19:51:15.393Z,101767.03
2023-03-28T19:53:43.189Z,101765.66
2023-03-28T19:56:11.927Z,101775.09
2023-03-28T19:58:39.250Z,101774.63
2023-03-28T20:01:06.707Z,101776.22
2023-03-28T20:03:33.644Z,101771.09
2023-03-28T20:06:21.205Z,101773.75
2023-03-28T20:08:48.321Z,101770.81
2023-03-28T20:11:16.017Z,101770.19
2023-03-28T20:13:43.262Z,101773.66
2023-03-28T20:16:12.157Z,101768.72
2023-03-28T20:18:39.981Z,101768.72
2023-03-28T20:21:11.476Z,101768.91
2023-03-28T20:23:38.837Z,101771.75
2023-03-28T20:26:18.426Z,101767.81
2023-03-28T20:28:50.398Z,101770.03
2023-03-28T20:31:18.966Z,101762.63
2023-03-28T20:33:46.201Z,101757.38
2023-03-28T20:36:13.193Z,101754.44
2023-03-28T20:38:40.449Z,101751.97
2023-03-28T20:41:16.759Z,101753.53
2023-03-28T20:43:47.419Z,101753.91
2023-03-28T20:46:20.589Z,101745.84
2023-03-28T20:48:54.699Z,101744.41
2023-03-28T20:51:23.826Z,101744.13
2023-03-28T20:53:56.938Z,101739.19
2023-03-28T20:56:28.995Z,101729.94
2023-03-28T20:59:00.917Z,101737.63
2023-03-28T21:01:32.600Z,101735.16
2023-03-28T21:04:01.844Z,101736.91
2023-03-28T21:06:36.017Z,101734.44
2023-03-28T21:09:09.995Z,101726.38
2023-03-28T21:11:42.424Z,101734.88
2023-03-28T21:14:13.486Z,101733.41
2023-03-28T21:16:41.167Z,101730.31
2023-03-28T21:19:08.642Z,101718.41
2023-03-28T21:21:36.111Z,101717.94
2023-03-28T21:24:05.067Z,101722.88
2023-03-28T21:26:32.331Z,101724.91
2023-03-28T21:28:59.442Z,101716.28
2023-03-28T21:31:29.471Z,101722.44
2023-03-28T21:33:57.994Z,101720.78
2023-03-28T21:36:26.409Z,101711.50
2023-03-28T21:38:53.779Z,101720.94
2023-03-28T21:41:22.408Z,101719.81
2023-03-28T21:43:50.174Z,101715.78
2023-03-28T21:46:18.554Z,101720.47
2023-03-28T21:48:47.742Z,101723.59
2023-03-28T21:51:17.222Z,101710.84
2023-03-28T21:53:44.402Z,101716.16
2023-03-28T21:56:14.589Z,101707.56
2023-03-28T21:58:41.747Z,101708.19
2023-03-28T22:01:14.054Z,101704.06
2023-03-28T22:03:41.333Z,101701.59
2023-03-28T22:06:09.111Z,101706.28
2023-03-28T22:08:36.571Z,101699.69
2023-03-28T22:11:10.928Z,101707.66
2023-03-28T22:13:38.748Z,101695.47
2023-03-28T22:16:09.385Z,101702.06
2023-03-28T22:18:40.132Z,101706.06
2023-03-28T22:21:14.137Z,101708.72
2023-03-28T22:23:42.826Z,101695.63
2023-03-28T22:26:10.514Z,101701.31
2023-03-28T22:28:38.245Z,101699.19
2023-03-28T22:31:05.670Z,101691.41
2023-03-28T22:33:32.980Z,101682.53
2023-03-28T22:36:00.654Z,101688.03
2023-03-28T22:38:28.098Z,101680.78
2023-03-28T22:40:55.134Z,101689.75
2023-03-28T22:43:22.781Z,101685.44
2023-03-28T22:45:50.205Z,101694.59
2023-03-28T22:48:20.186Z,101684.50
2023-03-28T22:50:47.673Z,101686.53
2023-03-28T22:53:15.290Z,101678.28
2023-03-28T22:55:43.908Z,101685.59
2023-03-28T22:58:11.936Z,101670.38
2023-03-28T23:00:39.137Z,101680.16
2023-03-28T23:03:07.893Z,101680.25
2023-03-28T23:05:35.049Z,101681.25
2023-03-28T23:08:02.136Z,101676.81
2023-03-28T23:10:30.136Z,101673.16
2023-03-28T23:12:57.531Z,101664.06
2023-03-28T23:15:24.518Z,101671.72
2023-03-28T23:17:52.116Z,101670.25
2023-03-28T23:20:19.878Z,101673.41
2023-03-28T23:22:48.715Z,101657.94
2023-03-28T23:25:19.500Z,101663.56
2023-03-28T23:27:46.845Z,101673.53
2023-03-28T23:30:15.896Z,101661.97
2023-03-28T23:32:43.022Z,101665.50
2023-03-28T23:35:11.629Z,101655.59
2023-03-28T23:37:39.365Z,101663.09
2023-03-28T23:40:14.537Z,101649.25
2023-03-28T23:42:44.293Z,101655.06
2023-03-28T23:45:14.528Z,101652.28
2023-03-28T23:47:43.579Z,101651.28
2023-03-28T23:50:11.173Z,101649.34
2023-03-28T23:52:38.278Z,101632.16
2023-03-28T23:55:07.962Z,101633.50
2023-03-28T23:57:35.081Z,101627.72
